Aviation Digital Data Service (ADDS)

Output produced by METARs form (0818 UTC 19 April 2019)
found at http://www.aviationweather.gov/metar/data/
 
METAR text: MGGT 190800Z 18004KT 6000 OVC015 19/18 Q1023 A3021 BR
Conditions at: MGGT (GUATEMALA/LA AU , GT) observed 0800 UTC 19 April 2019
Temperature: 19.0°C (66°F)
Dewpoint: 18.0°C (64°F) [RH = 94%]
Pressure (altimeter): 30.21 inches Hg (1023.0 mb)
Winds: from the S (180 degrees) at 5 MPH (4 knots; 2.1 m/s)
Visibility: 4 miles ( 6 km)
Ceiling: 1500 feet AGL
Clouds: overcast cloud deck at 1500 feet AGL
Weather: BR  (mist)

METAR text: MGGT 190700Z 18004KT 6000 SCT016 SCT070 20/17 Q1023 A3021 HZ
Conditions at: MGGT (GUATEMALA/LA AU , GT) observed 0700 UTC 19 April 2019
Temperature: 20.0°C (68°F)
Dewpoint: 17.0°C (63°F) [RH = 83%]
Pressure (altimeter): 30.21 inches Hg (1023.0 mb)
Winds: from the S (180 degrees) at 5 MPH (4 knots; 2.1 m/s)
Visibility: 4 miles ( 6 km)
Ceiling: at least 12,000 feet AGL
Clouds: scattered clouds at 1600 feet AGL
scattered clouds at 7000 feet AGL
Weather: HZ  (haze)

METAR text: MGGT 190600Z 18004KT 6000 SCT015 SCT070 20/17 Q1023 A3021 HZ
Conditions at: MGGT (GUATEMALA/LA AU , GT) observed 0600 UTC 19 April 2019
Temperature: 20.0°C (68°F)
Dewpoint: 17.0°C (63°F) [RH = 83%]
Pressure (altimeter): 30.21 inches Hg (1023.0 mb)
Winds: from the S (180 degrees) at 5 MPH (4 knots; 2.1 m/s)
Visibility: 4 miles ( 6 km)
Ceiling: at least 12,000 feet AGL
Clouds: scattered clouds at 1500 feet AGL
scattered clouds at 7000 feet AGL
Weather: HZ  (haze)

METAR text: MGGT 190500Z 18008KT 5000 BR OVC015 20/18 Q1024 A3024
Conditions at: MGGT (GUATEMALA/LA AU , GT) observed 0500 UTC 19 April 2019
Temperature: 20.0°C (68°F)
Dewpoint: 18.0°C (64°F) [RH = 88%]
Pressure (altimeter): 30.24 inches Hg (1024.0 mb)
Winds: from the S (180 degrees) at 9 MPH (8 knots; 4.1 m/s)
Visibility: 3 miles ( 5 km)
Ceiling: 1500 feet AGL
Clouds: overcast cloud deck at 1500 feet AGL
Weather: BR  (mist)

METAR text: MGGT 190400Z 18008KT 5000 BR OVC015 20/18 Q1023 A3021
Conditions at: MGGT (GUATEMALA/LA AU , GT) observed 0400 UTC 19 April 2019
Temperature: 20.0°C (68°F)
Dewpoint: 18.0°C (64°F) [RH = 88%]
Pressure (altimeter): 30.21 inches Hg (1023.0 mb)
Winds: from the S (180 degrees) at 9 MPH (8 knots; 4.1 m/s)
Visibility: 3 miles ( 5 km)
Ceiling: 1500 feet AGL
Clouds: overcast cloud deck at 1500 feet AGL
Weather: BR  (mist)

METAR text: MGGT 190300Z 18008KT 5000 HZ BKN016 20/18 Q1023 A3021 CB/LTNG DIST S
Conditions at: MGGT (GUATEMALA/LA AU , GT) observed 0300 UTC 19 April 2019
Temperature: 20.0°C (68°F)
Dewpoint: 18.0°C (64°F) [RH = 88%]
Pressure (altimeter): 30.21 inches Hg (1023.0 mb)
Winds: from the S (180 degrees) at 9 MPH (8 knots; 4.1 m/s)
Visibility: 3 miles ( 5 km)
Ceiling: 1600 feet AGL
Clouds: broken clouds at 1600 feet AGL
Weather: HZ  (haze)

METAR text: MGGT 190200Z 20008KT 5000 HZ BKN016 21/18 Q1022 A3018 CB/LTNG DIST NE/SW
Conditions at: MGGT (GUATEMALA/LA AU , GT) observed 0200 UTC 19 April 2019
Temperature: 21.0°C (70°F)
Dewpoint: 18.0°C (64°F) [RH = 83%]
Pressure (altimeter): 30.18 inches Hg (1022.0 mb)
Winds: from the SSW (200 degrees) at 9 MPH (8 knots; 4.1 m/s)
Visibility: 3 miles ( 5 km)
Ceiling: 1600 feet AGL
Clouds: broken clouds at 1600 feet AGL
Weather: HZ  (haze)

METAR text: MGGT 190100Z 18010KT 5000 HZ BKN016 21/18 Q1022 A3018
Conditions at: MGGT (GUATEMALA/LA AU , GT) observed 0100 UTC 19 April 2019
Temperature: 21.0°C (70°F)
Dewpoint: 18.0°C (64°F) [RH = 83%]
Pressure (altimeter): 30.18 inches Hg (1022.0 mb)
Winds: from the S (180 degrees) at 12 MPH (10 knots; 5.1 m/s)
Visibility: 3 miles ( 5 km)
Ceiling: 1600 feet AGL
Clouds: broken clouds at 1600 feet AGL
Weather: HZ  (haze)

METAR text: MGGT 190000Z 18010KT 5000 TS VCSH FEW018 FEW022CB SCT080 22/18 Q1021 A3015 FEW070 CB/TS/PCPN SSE/S/SSW
Conditions at: MGGT (GUATEMALA/LA AU , GT) observed 0000 UTC 19 April 2019
Temperature: 22.0°C (72°F)
Dewpoint: 18.0°C (64°F) [RH = 78%]
Pressure (altimeter): 30.15 inches Hg (1021.0 mb)
Winds: from the S (180 degrees) at 12 MPH (10 knots; 5.1 m/s)
Visibility: 3 miles ( 5 km)
Ceiling: at least 12,000 feet AGL
Clouds: few clouds at 1800 feet AGL
few clouds at 2200 feet AGL
scattered clouds at 8000 feet AGL
few clouds at 7000 feet AGL
Weather: TS VCSH TS SS SS  (thunderstorm, showers in vicinity, thunderstorm, sandstorm, sandstorm)

METAR text: MGGT 182300Z 21010KT 6000 VCSH SCT018 SCT020 23/17 Q1020 A3012 HZ PCPN SSE/S/SSW/SW
Conditions at: MGGT (GUATEMALA/LA AU , GT) observed 2300 UTC 18 April 2019
Temperature: 23.0°C (73°F)
Dewpoint: 17.0°C (63°F) [RH = 69%]
Pressure (altimeter): 30.12 inches Hg (1020.0 mb)
Winds: from the SSW (210 degrees) at 12 MPH (10 knots; 5.1 m/s)
Visibility: 4 miles ( 6 km)
Ceiling: at least 12,000 feet AGL
Clouds: scattered clouds at 1800 feet AGL
scattered clouds at 2000 feet AGL
Weather: VCSH HZ SS SS  (showers in vicinity, haze, sandstorm, sandstorm)

METAR text: MGGT 182200Z 18014KT 6000 FEW018 BKN020 24/17 Q1020 A3012 HZ
Conditions at: MGGT (GUATEMALA/LA AU , GT) observed 2200 UTC 18 April 2019
Temperature: 24.0°C (75°F)
Dewpoint: 17.0°C (63°F) [RH = 65%]
Pressure (altimeter): 30.12 inches Hg (1020.0 mb)
Winds: from the S (180 degrees) at 16 MPH (14 knots; 7.2 m/s)
Visibility: 4 miles ( 6 km)
Ceiling: 2000 feet AGL
Clouds: few clouds at 1800 feet AGL
broken clouds at 2000 feet AGL
Weather: HZ  (haze)

METAR text: MGGT 182100Z 18018KT 6000 BKN020 25/16 Q1020 A3012 HZ
Conditions at: MGGT (GUATEMALA/LA AU , GT) observed 2100 UTC 18 April 2019
Temperature: 25.0°C (77°F)
Dewpoint: 16.0°C (61°F) [RH = 57%]
Pressure (altimeter): 30.12 inches Hg (1020.0 mb)
Winds: from the S (180 degrees) at 21 MPH (18 knots; 9.3 m/s)
Visibility: 4 miles ( 6 km)
Ceiling: 2000 feet AGL
Clouds: broken clouds at 2000 feet AGL
Weather: HZ  (haze)

METAR text: MGGT 182000Z 21014KT 6000 BKN020 25/16 Q1021 A3015 HZ
Conditions at: MGGT (GUATEMALA/LA AU , GT) observed 2000 UTC 18 April 2019
Temperature: 25.0°C (77°F)
Dewpoint: 16.0°C (61°F) [RH = 57%]
Pressure (altimeter): 30.15 inches Hg (1021.0 mb)
Winds: from the SSW (210 degrees) at 16 MPH (14 knots; 7.2 m/s)
Visibility: 4 miles ( 6 km)
Ceiling: 2000 feet AGL
Clouds: broken clouds at 2000 feet AGL
Weather: HZ  (haze)

METAR text: MGGT 181900Z 18014KT 6000 SCT020 24/16 Q1022 A3018 HZ
Conditions at: MGGT (GUATEMALA/LA AU , GT) observed 1900 UTC 18 April 2019
Temperature: 24.0°C (75°F)
Dewpoint: 16.0°C (61°F) [RH = 61%]
Pressure (altimeter): 30.18 inches Hg (1022.0 mb)
Winds: from the S (180 degrees) at 16 MPH (14 knots; 7.2 m/s)
Visibility: 4 miles ( 6 km)
Ceiling: at least 12,000 feet AGL
Clouds: scattered clouds at 2000 feet AGL
Weather: HZ  (haze)

METAR text: MGGT 181800Z 18014KT 5000 HZ FEW016 BKN020 24/16 Q1023 A3021
Conditions at: MGGT (GUATEMALA/LA AU , GT) observed 1800 UTC 18 April 2019
Temperature: 24.0°C (75°F)
Dewpoint: 16.0°C (61°F) [RH = 61%]
Pressure (altimeter): 30.21 inches Hg (1023.0 mb)
Winds: from the S (180 degrees) at 16 MPH (14 knots; 7.2 m/s)
Visibility: 3 miles ( 5 km)
Ceiling: 2000 feet AGL
Clouds: few clouds at 1600 feet AGL
broken clouds at 2000 feet AGL
Weather: HZ  (haze)

METAR text: MGGT 181700Z 18014KT 5000 HZ FEW016 SCT020 24/16 Q1023 A3021
Conditions at: MGGT (GUATEMALA/LA AU , GT) observed 1700 UTC 18 April 2019
Temperature: 24.0°C (75°F)
Dewpoint: 16.0°C (61°F) [RH = 61%]
Pressure (altimeter): 30.21 inches Hg (1023.0 mb)
Winds: from the S (180 degrees) at 16 MPH (14 knots; 7.2 m/s)
Visibility: 3 miles ( 5 km)
Ceiling: at least 12,000 feet AGL
Clouds: few clouds at 1600 feet AGL
scattered clouds at 2000 feet AGL
Weather: HZ  (haze)

METAR text: MGGT 181600Z 18014KT 5000 HZ FEW016 SCT020 24/16 Q1023 A3021
Conditions at: MGGT (GUATEMALA/LA AU , GT) observed 1600 UTC 18 April 2019
Temperature: 24.0°C (75°F)
Dewpoint: 16.0°C (61°F) [RH = 61%]
Pressure (altimeter): 30.21 inches Hg (1023.0 mb)
Winds: from the S (180 degrees) at 16 MPH (14 knots; 7.2 m/s)
Visibility: 3 miles ( 5 km)
Ceiling: at least 12,000 feet AGL
Clouds: few clouds at 1600 feet AGL
scattered clouds at 2000 feet AGL
Weather: HZ  (haze)

METAR text: MGGT 181500Z 18008KT 5000 HZ FEW016 SCT018 22/16 Q1023 A3021
Conditions at: MGGT (GUATEMALA/LA AU , GT) observed 1500 UTC 18 April 2019
Temperature: 22.0°C (72°F)
Dewpoint: 16.0°C (61°F) [RH = 69%]
Pressure (altimeter): 30.21 inches Hg (1023.0 mb)
Winds: from the S (180 degrees) at 9 MPH (8 knots; 4.1 m/s)
Visibility: 3 miles ( 5 km)
Ceiling: at least 12,000 feet AGL
Clouds: few clouds at 1600 feet AGL
scattered clouds at 1800 feet AGL
Weather: HZ  (haze)

METAR text: MGGT 181400Z 18006KT 5000 BR FEW008 SCT014 20/17 Q1023 A3021
Conditions at: MGGT (GUATEMALA/LA AU , GT) observed 1400 UTC 18 April 2019
Temperature: 20.0°C (68°F)
Dewpoint: 17.0°C (63°F) [RH = 83%]
Pressure (altimeter): 30.21 inches Hg (1023.0 mb)
Winds: from the S (180 degrees) at 7 MPH (6 knots; 3.1 m/s)
Visibility: 3 miles ( 5 km)
Ceiling: at least 12,000 feet AGL
Clouds: few clouds at 800 feet AGL
scattered clouds at 1400 feet AGL
Weather: BR  (mist)

METAR text: MGGT 181300Z 22004KT 7000 FEW008 SCT012 19/17 Q1022 A3018 FEW080
Conditions at: MGGT (GUATEMALA/LA AU , GT) observed 1300 UTC 18 April 2019
Temperature: 19.0°C (66°F)
Dewpoint: 17.0°C (63°F) [RH = 88%]
Pressure (altimeter): 30.18 inches Hg (1022.0 mb)
Winds: from the SW (220 degrees) at 5 MPH (4 knots; 2.1 m/s)
Visibility: 4 miles ( 7 km)
Ceiling: at least 12,000 feet AGL
Clouds: few clouds at 800 feet AGL
scattered clouds at 1200 feet AGL
few clouds at 8000 feet AGL
Weather: no significant weather observed at this time

METAR text: MGGT 181215Z 24004KT 5000 BR SCT008 SCT012
Conditions at: MGGT (GUATEMALA/LA AU , GT) observed 1215 UTC 18 April 2019
Temperature: missing
Dewpoint: missing
Pressure (altimeter): missing
Winds: from the WSW (240 degrees) at 5 MPH (4 knots; 2.1 m/s)
Visibility: 3 miles ( 5 km)
Ceiling: at least 12,000 feet AGL
Clouds: scattered clouds at 800 feet AGL
scattered clouds at 1200 feet AGL
Weather: BR  (mist)

METAR text: MGGT 181200Z 21004KT 7000 FEW008 BKN012 18/16 Q1022 A3018 BR
Conditions at: MGGT (GUATEMALA/LA AU , GT) observed 1200 UTC 18 April 2019
Temperature: 18.0°C (64°F)
Dewpoint: 16.0°C (61°F) [RH = 88%]
Pressure (altimeter): 30.18 inches Hg (1022.0 mb)
Winds: from the SSW (210 degrees) at 5 MPH (4 knots; 2.1 m/s)
Visibility: 4 miles ( 7 km)
Ceiling: 1200 feet AGL
Clouds: few clouds at 800 feet AGL
broken clouds at 1200 feet AGL
Weather: BR  (mist)

METAR text: MGGT 181100Z 00000KT 8000 FEW008 SCT012 18/16 Q1021 A3015 BR
Conditions at: MGGT (GUATEMALA/LA AU , GT) observed 1100 UTC 18 April 2019
Temperature: 18.0°C (64°F)
Dewpoint: 16.0°C (61°F) [RH = 88%]
Pressure (altimeter): 30.15 inches Hg (1021.0 mb)
Winds: calm
Visibility: 5 miles ( 8 km)
Ceiling: at least 12,000 feet AGL
Clouds: few clouds at 800 feet AGL
scattered clouds at 1200 feet AGL
Weather: BR  (mist)

METAR text: MGGT 181000Z 00000KT 7000 FEW008 BKN012 19/16 Q1021 A3015 BR
Conditions at: MGGT (GUATEMALA/LA AU , GT) observed 1000 UTC 18 April 2019
Temperature: 19.0°C (66°F)
Dewpoint: 16.0°C (61°F) [RH = 83%]
Pressure (altimeter): 30.15 inches Hg (1021.0 mb)
Winds: calm
Visibility: 4 miles ( 7 km)
Ceiling: 1200 feet AGL
Clouds: few clouds at 800 feet AGL
broken clouds at 1200 feet AGL
Weather: BR  (mist)

METAR text: MGGT 180900Z 00000KT 6000 FEW008 BKN012 19/17 Q1021 A3015 BR
Conditions at: MGGT (GUATEMALA/LA AU , GT) observed 0900 UTC 18 April 2019
Temperature: 19.0°C (66°F)
Dewpoint: 17.0°C (63°F) [RH = 88%]
Pressure (altimeter): 30.15 inches Hg (1021.0 mb)
Winds: calm
Visibility: 4 miles ( 6 km)
Ceiling: 1200 feet AGL
Clouds: few clouds at 800 feet AGL
broken clouds at 1200 feet AGL
Weather: BR  (mist)

METAR text: MGGT 180800Z 00000KT 6000 BKN012 18/17 Q1022 A3018 BR
Conditions at: MGGT (GUATEMALA/LA AU , GT) observed 0800 UTC 18 April 2019
Temperature: 18.0°C (64°F)
Dewpoint: 17.0°C (63°F) [RH = 94%]
Pressure (altimeter): 30.18 inches Hg (1022.0 mb)
Winds: calm
Visibility: 4 miles ( 6 km)
Ceiling: 1200 feet AGL
Clouds: broken clouds at 1200 feet AGL
Weather: BR  (mist)

METAR text: MGGT 180700Z 00000KT 6000 SCT014 19/16 Q1023 A3021 BR
Conditions at: MGGT (GUATEMALA/LA AU , GT) observed 0700 UTC 18 April 2019
Temperature: 19.0°C (66°F)
Dewpoint: 16.0°C (61°F) [RH = 83%]
Pressure (altimeter): 30.21 inches Hg (1023.0 mb)
Winds: calm
Visibility: 4 miles ( 6 km)
Ceiling: at least 12,000 feet AGL
Clouds: scattered clouds at 1400 feet AGL
Weather: BR  (mist)

METAR text: MGGT 180600Z 00000KT 6000 SCT014 19/16 Q1024 A3024 BR
Conditions at: MGGT (GUATEMALA/LA AU , GT) observed 0600 UTC 18 April 2019
Temperature: 19.0°C (66°F)
Dewpoint: 16.0°C (61°F) [RH = 83%]
Pressure (altimeter): 30.24 inches Hg (1024.0 mb)
Winds: calm
Visibility: 4 miles ( 6 km)
Ceiling: at least 12,000 feet AGL
Clouds: scattered clouds at 1400 feet AGL
Weather: BR  (mist)

METAR text: MGGT 180500Z 18004KT 5000S BR BKN012 20/17 Q1025 A3027
Conditions at: MGGT (GUATEMALA/LA AU , GT) observed 0500 UTC 18 April 2019
Temperature: 20.0°C (68°F)
Dewpoint: 17.0°C (63°F) [RH = 83%]
Pressure (altimeter): 30.27 inches Hg (1025.0 mb)
Winds: from the S (180 degrees) at 5 MPH (4 knots; 2.1 m/s)
Visibility: 3 miles ( 5 km)
Ceiling: 1200 feet AGL
Clouds: broken clouds at 1200 feet AGL
Weather: BR  (mist)

METAR text: MGGT 180400Z 00000KT 5000S BR BKN012 20/18 Q1025 A3027
Conditions at: MGGT (GUATEMALA/LA AU , GT) observed 0400 UTC 18 April 2019
Temperature: 20.0°C (68°F)
Dewpoint: 18.0°C (64°F) [RH = 88%]
Pressure (altimeter): 30.27 inches Hg (1025.0 mb)
Winds: calm
Visibility: 3 miles ( 5 km)
Ceiling: 1200 feet AGL
Clouds: broken clouds at 1200 feet AGL
Weather: BR  (mist)

METAR text: MGGT 180300Z 180300Z 18006KT 5000S BR BKN014 20/18 Q1024 A3024
Conditions at: MGGT (GUATEMALA/LA AU , GT) observed 0300 UTC 18 April 2019
Temperature: 20.0°C (68°F)
Dewpoint: 18.0°C (64°F) [RH = 88%]
Pressure (altimeter): 30.24 inches Hg (1024.0 mb)
Winds: from the S (180 degrees) at 7 MPH (6 knots; 3.1 m/s)
Visibility: 3 miles ( 5 km)
Ceiling: 1400 feet AGL
Clouds: broken clouds at 1400 feet AGL
Weather: BR  (mist)

METAR text: MGGT 180200Z 18008KT 6000 SCT014 20/18 Q1024 A3024 BR
Conditions at: MGGT (GUATEMALA/LA AU , GT) observed 0200 UTC 18 April 2019
Temperature: 20.0°C (68°F)
Dewpoint: 18.0°C (64°F) [RH = 88%]
Pressure (altimeter): 30.24 inches Hg (1024.0 mb)
Winds: from the S (180 degrees) at 9 MPH (8 knots; 4.1 m/s)
Visibility: 4 miles ( 6 km)
Ceiling: at least 12,000 feet AGL
Clouds: scattered clouds at 1400 feet AGL
Weather: BR  (mist)

METAR text: MGGT 180100Z 18006KT 6000 BKN014 21/17 Q1023 A3021 BR
Conditions at: MGGT (GUATEMALA/LA AU , GT) observed 0100 UTC 18 April 2019
Temperature: 21.0°C (70°F)
Dewpoint: 17.0°C (63°F) [RH = 78%]
Pressure (altimeter): 30.21 inches Hg (1023.0 mb)
Winds: from the S (180 degrees) at 7 MPH (6 knots; 3.1 m/s)
Visibility: 4 miles ( 6 km)
Ceiling: 1400 feet AGL
Clouds: broken clouds at 1400 feet AGL
Weather: BR  (mist)

METAR text: MGGT 180000Z 18010KT 6000 SCT014 BKN090 21/18 Q1022 A3018 BR
Conditions at: MGGT (GUATEMALA/LA AU , GT) observed 0000 UTC 18 April 2019
Temperature: 21.0°C (70°F)
Dewpoint: 18.0°C (64°F) [RH = 83%]
Pressure (altimeter): 30.18 inches Hg (1022.0 mb)
Winds: from the S (180 degrees) at 12 MPH (10 knots; 5.1 m/s)
Visibility: 4 miles ( 6 km)
Ceiling: 9000 feet AGL
Clouds: scattered clouds at 1400 feet AGL
broken clouds at 9000 feet AGL
Weather: BR  (mist)

METAR text: MGGT 172300Z 18012KT 6000 FEW020 FEW025CB BKN200 22/17 Q1022 A3018 CB SW
Conditions at: MGGT (GUATEMALA/LA AU , GT) observed 2300 UTC 17 April 2019
Temperature: 22.0°C (72°F)
Dewpoint: 17.0°C (63°F) [RH = 73%]
Pressure (altimeter): 30.18 inches Hg (1022.0 mb)
Winds: from the S (180 degrees) at 14 MPH (12 knots; 6.2 m/s)
Visibility: 4 miles ( 6 km)
Ceiling: 20000 feet AGL
Clouds: few clouds at 2000 feet AGL
few clouds at 2500 feet AGL
broken clouds at 20000 feet AGL
Weather: no significant weather observed at this time

METAR text: MGGT 172200Z 18012KT 8000 SCT020 FEW025CB 25/16 Q1021 A3015 HZ CB S/SW/W
Conditions at: MGGT (GUATEMALA/LA AU , GT) observed 2200 UTC 17 April 2019
Temperature: 25.0°C (77°F)
Dewpoint: 16.0°C (61°F) [RH = 57%]
Pressure (altimeter): 30.15 inches Hg (1021.0 mb)
Winds: from the S (180 degrees) at 14 MPH (12 knots; 6.2 m/s)
Visibility: 5 miles ( 8 km)
Ceiling: at least 12,000 feet AGL
Clouds: scattered clouds at 2000 feet AGL
few clouds at 2500 feet AGL
Weather: HZ  (haze)

METAR text: MGGT 172100Z 18012KT 8000 BKN022TCU FEW025CB 26/16 Q1021 A3015 CB E/SE TCU N
Conditions at: MGGT (GUATEMALA/LA AU , GT) observed 2100 UTC 17 April 2019
Temperature: 26.0°C (79°F)
Dewpoint: 16.0°C (61°F) [RH = 54%]
Pressure (altimeter): 30.15 inches Hg (1021.0 mb)
Winds: from the S (180 degrees) at 14 MPH (12 knots; 6.2 m/s)
Visibility: 5 miles ( 8 km)
Ceiling: 2200 feet AGL
Clouds: broken clouds at 2200 feet AGL
few clouds at 2500 feet AGL
Weather: no significant weather observed at this time

Forecast for: MGGT (GUATEMALA/LA AU , GT)
Text: MGGT 190500Z 1906/2006 VRB03KT 5000 BR BKN016 TX26/1920Z TN17/1912Z
Forecast period: 0600 to 1100 UTC 19 April 2019
Forecast type: FROM: standard forecast or significant change
Winds: variable direction winds at 3 MPH (3 knots; 1.5 m/s)
Visibility: 3 miles (5 km)
Ceiling: 1600 feet AGL
Clouds: broken clouds at 1600 feet AGL
Weather: BR  (mist)
Text: BECMG 1911/1913 36012KT 9999 SCT016
Forecast period: 1100 to 1600 UTC 19 April 2019
Forecast type: BECOMING: Conditions expected to become as follows by 1300 UTC 19 April 2019
Winds: from the N (360 degrees) at 14 MPH (12 knots; 6.2 m/s)
Visibility: 6 or more miles 10+ km)
Ceiling: at least 12,000 feet AGL
Clouds: scattered clouds at 1600 feet AGL
Weather: BR  (mist)
Text: BECMG 1916/1918 36020KT SCT018
Forecast period: 1600 UTC 19 April 2019 to 0200 UTC 20 April 2019
Forecast type: BECOMING: Conditions expected to become as follows by 1800 UTC 19 April 2019
Winds: from the N (360 degrees) at 23 MPH (20 knots; 10.3 m/s)
Visibility: 6 or more miles 10+ km)
Ceiling: at least 12,000 feet AGL
Clouds: scattered clouds at 1800 feet AGL
Weather: BR  (mist)
Text: TEMPO 1918/2006 7000 TSRA SCT020TCU FEW025CB
Forecast period: 1800 UTC 19 April 2019 to 0600 UTC 20 April 2019
Forecast type: TEMPORARY: The following changes expected for less than half the time period
Visibility: 4 miles (7 km)
Ceiling: at least 12,000 feet AGL
Clouds: scattered clouds at 2000 feet AGL
few clouds at 2500 feet AGL
Weather: TSRA  (rain associated with thunderstorm(s))
Text: BECMG 2002/2004 36016KT BKN016
Forecast period: 0200 to 0600 UTC 20 April 2019
Forecast type: BECOMING: Conditions expected to become as follows by 0400 UTC 20 April 2019
Winds: from the N (360 degrees) at 18 MPH (16 knots; 8.2 m/s)
Visibility: 6 or more miles 10+ km)
Ceiling: 1600 feet AGL
Clouds: broken clouds at 1600 feet AGL
Weather: BR  (mist)